sensor_id;sensor_type;location;lat;lon;timestamp;temperature;humidity
52439;DHT22;38359;53.150;6.504;2023-05-24T00:08:10;9.50;99.90
52439;DHT22;38359;53.150;6.504;2023-05-24T00:18:36;9.50;99.90
52439;DHT22;38359;53.150;6.504;2023-05-24T00:29:05;9.60;99.90
52439;DHT22;38359;53.150;6.504;2023-05-24T00:39:31;9.30;99.90
52439;DHT22;38359;53.150;6.504;2023-05-24T00:49:57;9.20;99.90
52439;DHT22;38359;53.150;6.504;2023-05-24T01:00:23;9.30;99.90
52439;DHT22;38359;53.150;6.504;2023-05-24T01:11:00;9.30;99.90
52439;DHT22;38359;53.150;6.504;2023-05-24T01:21:43;9.30;99.90
52439;DHT22;38359;53.150;6.504;2023-05-24T01:32:33;9.30;99.90
52439;DHT22;38359;53.150;6.504;2023-05-24T01:43:16;9.20;99.90
52439;DHT22;38359;53.150;6.504;2023-05-24T01:53:48;9.10;99.90
52439;DHT22;38359;53.150;6.504;2023-05-24T02:04:14;9.20;99.90
52439;DHT22;38359;53.150;6.504;2023-05-24T02:14:41;9.20;99.90
52439;DHT22;38359;53.150;6.504;2023-05-24T02:25:07;9.20;99.90
52439;DHT22;38359;53.150;6.504;2023-05-24T02:35:33;9.30;99.90
52439;DHT22;38359;53.150;6.504;2023-05-24T02:45:58;9.50;99.90
52439;DHT22;38359;53.150;6.504;2023-05-24T02:56:24;9.60;99.90
52439;DHT22;38359;53.150;6.504;2023-05-24T03:06:50;9.50;99.90
52439;DHT22;38359;53.150;6.504;2023-05-24T03:17:17;9.60;99.90
52439;DHT22;38359;53.150;6.504;2023-05-24T03:27:43;9.60;99.90
52439;DHT22;38359;53.150;6.504;2023-05-24T03:38:09;9.50;99.90
52439;DHT22;38359;53.150;6.504;2023-05-24T03:48:35;9.50;99.90
52439;DHT22;38359;53.150;6.504;2023-05-24T03:59:01;9.70;99.90
52439;DHT22;38359;53.150;6.504;2023-05-24T04:09:28;9.70;99.90
52439;DHT22;38359;53.150;6.504;2023-05-24T04:19:54;9.90;99.90
52439;DHT22;38359;53.150;6.504;2023-05-24T04:30:20;10.00;99.90
52439;DHT22;38359;53.150;6.504;2023-05-24T04:40:46;10.10;99.90
52439;DHT22;38359;53.150;6.504;2023-05-24T04:51:12;10.20;99.90
52439;DHT22;38359;53.150;6.504;2023-05-24T05:01:38;10.10;99.90
52439;DHT22;38359;53.150;6.504;2023-05-24T05:12:04;10.30;99.90
52439;DHT22;38359;53.150;6.504;2023-05-24T05:22:30;10.40;99.90
52439;DHT22;38359;53.150;6.504;2023-05-24T05:32:55;10.60;99.90
52439;DHT22;38359;53.150;6.504;2023-05-24T05:43:21;11.00;99.90
52439;DHT22;38359;53.150;6.504;2023-05-24T05:53:47;11.20;99.90
52439;DHT22;38359;53.150;6.504;2023-05-24T06:04:16;11.40;99.90
52439;DHT22;38359;53.150;6.504;2023-05-24T06:14:42;11.50;99.90
52439;DHT22;38359;53.150;6.504;2023-05-24T06:25:08;12.10;99.90
52439;DHT22;38359;53.150;6.504;2023-05-24T06:35:34;12.10;99.90
52439;DHT22;38359;53.150;6.504;2023-05-24T06:46:00;12.10;99.90
52439;DHT22;38359;53.150;6.504;2023-05-24T06:56:26;12.20;99.90
52439;DHT22;38359;53.150;6.504;2023-05-24T07:06:53;12.40;99.90
52439;DHT22;38359;53.150;6.504;2023-05-24T07:17:18;12.70;99.90
52439;DHT22;38359;53.150;6.504;2023-05-24T07:27:44;12.80;99.90
52439;DHT22;38359;53.150;6.504;2023-05-24T07:38:10;13.20;99.90
52439;DHT22;38359;53.150;6.504;2023-05-24T07:48:36;13.20;99.90
52439;DHT22;38359;53.150;6.504;2023-05-24T07:59:02;13.40;99.90
52439;DHT22;38359;53.150;6.504;2023-05-24T08:09:29;13.20;99.90
52439;DHT22;38359;53.150;6.504;2023-05-24T08:19:58;13.30;99.90
52439;DHT22;38359;53.150;6.504;2023-05-24T08:30:23;13.50;99.90
52439;DHT22;38359;53.150;6.504;2023-05-24T08:40:49;13.60;99.90
52439;DHT22;38359;53.150;6.504;2023-05-24T08:51:16;14.10;99.90
52439;DHT22;38359;53.150;6.504;2023-05-24T09:01:42;14.20;99.90
52439;DHT22;38359;53.150;6.504;2023-05-24T09:12:09;14.50;99.90
52439;DHT22;38359;53.150;6.504;2023-05-24T09:22:36;14.50;99.90
52439;DHT22;38359;53.150;6.504;2023-05-24T09:33:06;14.90;99.90
52439;DHT22;38359;53.150;6.504;2023-05-24T09:43:33;14.90;99.90
52439;DHT22;38359;53.150;6.504;2023-05-24T09:54:01;15.00;99.90
52439;DHT22;38359;53.150;6.504;2023-05-24T10:04:32;15.30;99.90
52439;DHT22;38359;53.150;6.504;2023-05-24T10:14:58;15.00;99.90
52439;DHT22;38359;53.150;6.504;2023-05-24T10:25:26;15.40;99.90
52439;DHT22;38359;53.150;6.504;2023-05-24T10:35:53;15.10;99.90
52439;DHT22;38359;53.150;6.504;2023-05-24T10:46:19;15.40;99.90
52439;DHT22;38359;53.150;6.504;2023-05-24T10:56:49;14.90;99.90
52439;DHT22;38359;53.150;6.504;2023-05-24T11:07:17;15.10;99.90
52439;DHT22;38359;53.150;6.504;2023-05-24T11:18:13;15.00;99.90
52439;DHT22;38359;53.150;6.504;2023-05-24T11:28:40;16.60;99.90
52439;DHT22;38359;53.150;6.504;2023-05-24T11:39:08;15.30;99.90
52439;DHT22;38359;53.150;6.504;2023-05-24T11:49:35;15.70;99.90
52439;DHT22;38359;53.150;6.504;2023-05-24T12:00:02;16.10;99.90
52439;DHT22;38359;53.150;6.504;2023-05-24T12:10:34;15.70;99.90
52439;DHT22;38359;53.150;6.504;2023-05-24T12:21:00;15.50;99.90
52439;DHT22;38359;53.150;6.504;2023-05-24T12:31:33;15.20;99.90
52439;DHT22;38359;53.150;6.504;2023-05-24T12:41:59;15.60;99.90
52439;DHT22;38359;53.150;6.504;2023-05-24T12:52:28;15.80;99.90
52439;DHT22;38359;53.150;6.504;2023-05-24T13:02:55;15.60;99.90
52439;DHT22;38359;53.150;6.504;2023-05-24T13:13:23;16.40;99.90
52439;DHT22;38359;53.150;6.504;2023-05-24T13:23:48;15.90;99.90
52439;DHT22;38359;53.150;6.504;2023-05-24T13:34:14;15.30;99.90
52439;DHT22;38359;53.150;6.504;2023-05-24T13:44:40;16.20;99.90
52439;DHT22;38359;53.150;6.504;2023-05-24T13:55:06;16.40;99.90
52439;DHT22;38359;53.150;6.504;2023-05-24T14:05:34;17.20;99.90
52439;DHT22;38359;53.150;6.504;2023-05-24T14:16:00;19.50;99.90
52439;DHT22;38359;53.150;6.504;2023-05-24T14:26:25;19.50;99.90
52439;DHT22;38359;53.150;6.504;2023-05-24T14:36:53;19.20;99.90
52439;DHT22;38359;53.150;6.504;2023-05-24T14:47:18;18.30;99.90
52439;DHT22;38359;53.150;6.504;2023-05-24T14:57:44;19.60;99.90
52439;DHT22;38359;53.150;6.504;2023-05-24T15:08:10;20.60;99.90
52439;DHT22;38359;53.150;6.504;2023-05-24T15:18:36;21.80;96.50
52439;DHT22;38359;53.150;6.504;2023-05-24T15:29:02;22.30;88.30
52439;DHT22;38359;53.150;6.504;2023-05-24T15:39:29;22.20;72.70
52439;DHT22;38359;53.150;6.504;2023-05-24T15:50:02;21.90;63.50
52439;DHT22;38359;53.150;6.504;2023-05-24T16:00:28;22.20;61.70
52439;DHT22;38359;53.150;6.504;2023-05-24T16:10:54;23.90;56.90
52439;DHT22;38359;53.150;6.504;2023-05-24T16:21:20;24.20;51.70
52439;DHT22;38359;53.150;6.504;2023-05-24T16:31:46;23.80;43.00
52439;DHT22;38359;53.150;6.504;2023-05-24T16:42:12;21.90;59.40
52439;DHT22;38359;53.150;6.504;2023-05-24T16:52:38;23.50;43.90
52439;DHT22;38359;53.150;6.504;2023-05-24T17:03:04;24.40;44.40
52439;DHT22;38359;53.150;6.504;2023-05-24T17:13:31;21.50;52.80
52439;DHT22;38359;53.150;6.504;2023-05-24T17:23:58;23.00;48.00
52439;DHT22;38359;53.150;6.504;2023-05-24T17:34:24;22.00;47.50
52439;DHT22;38359;53.150;6.504;2023-05-24T17:44:50;22.20;49.80
52439;DHT22;38359;53.150;6.504;2023-05-24T17:55:16;21.10;56.00
52439;DHT22;38359;53.150;6.504;2023-05-24T18:05:41;21.60;54.40
52439;DHT22;38359;53.150;6.504;2023-05-24T18:16:09;22.00;52.60
52439;DHT22;38359;53.150;6.504;2023-05-24T18:26:35;20.50;59.30
52439;DHT22;38359;53.150;6.504;2023-05-24T18:37:01;19.00;89.30
52439;DHT22;38359;53.150;6.504;2023-05-24T18:47:27;18.60;85.80
52439;DHT22;38359;53.150;6.504;2023-05-24T18:57:55;18.20;91.90
52439;DHT22;38359;53.150;6.504;2023-05-24T19:08:21;17.60;99.00
52439;DHT22;38359;53.150;6.504;2023-05-24T19:18:46;17.10;99.90
52439;DHT22;38359;53.150;6.504;2023-05-24T19:29:12;16.90;99.90
52439;DHT22;38359;53.150;6.504;2023-05-24T19:39:38;16.70;99.90
52439;DHT22;38359;53.150;6.504;2023-05-24T19:50:05;16.80;99.90
52439;DHT22;38359;53.150;6.504;2023-05-24T20:00:31;16.20;99.90
52439;DHT22;38359;53.150;6.504;2023-05-24T20:10:58;15.70;99.90
52439;DHT22;38359;53.150;6.504;2023-05-24T20:21:23;15.50;99.90
52439;DHT22;38359;53.150;6.504;2023-05-24T20:31:49;15.20;99.90
52439;DHT22;38359;53.150;6.504;2023-05-24T20:42:15;14.80;99.90
52439;DHT22;38359;53.150;6.504;2023-05-24T20:52:42;14.80;99.90
52439;DHT22;38359;53.150;6.504;2023-05-24T21:03:08;14.40;99.90
52439;DHT22;38359;53.150;6.504;2023-05-24T21:13:34;14.20;99.90
52439;DHT22;38359;53.150;6.504;2023-05-24T21:23:59;14.00;99.90
52439;DHT22;38359;53.150;6.504;2023-05-24T21:34:25;14.30;99.90
52439;DHT22;38359;53.150;6.504;2023-05-24T21:44:52;13.60;99.90
52439;DHT22;38359;53.150;6.504;2023-05-24T21:55:18;13.50;99.90
52439;DHT22;38359;53.150;6.504;2023-05-24T22:05:44;13.40;99.90
52439;DHT22;38359;53.150;6.504;2023-05-24T22:16:09;13.20;99.90
52439;DHT22;38359;53.150;6.504;2023-05-24T22:26:35;13.00;99.90
52439;DHT22;38359;53.150;6.504;2023-05-24T22:37:01;13.00;99.90
52439;DHT22;38359;53.150;6.504;2023-05-24T22:47:27;12.60;99.90
52439;DHT22;38359;53.150;6.504;2023-05-24T22:57:57;12.40;99.90
52439;DHT22;38359;53.150;6.504;2023-05-24T23:08:23;12.20;99.90
52439;DHT22;38359;53.150;6.504;2023-05-24T23:18:50;11.80;99.90
52439;DHT22;38359;53.150;6.504;2023-05-24T23:29:16;11.60;99.90
52439;DHT22;38359;53.150;6.504;2023-05-24T23:39:41;11.70;99.90
52439;DHT22;38359;53.150;6.504;2023-05-24T23:50:07;11.70;99.90
